sensor_id;sensor_type;location;lat;lon;timestamp;P1;durP1;ratioP1;P2;durP2;ratioP2
19782;SDS011;10051;40.294;-3.754;2023-12-07T00:00:36;33.63;;;15.65;;
19782;SDS011;10051;40.294;-3.754;2023-12-07T00:03:02;34.75;;;16.08;;
19782;SDS011;10051;40.294;-3.754;2023-12-07T00:05:27;33.35;;;15.73;;
19782;SDS011;10051;40.294;-3.754;2023-12-07T00:07:53;33.80;;;15.85;;
19782;SDS011;10051;40.294;-3.754;2023-12-07T00:10:18;36.30;;;15.30;;
19782;SDS011;10051;40.294;-3.754;2023-12-07T00:12:44;28.00;;;15.27;;
19782;SDS011;10051;40.294;-3.754;2023-12-07T00:15:10;30.17;;;14.90;;
19782;SDS011;10051;40.294;-3.754;2023-12-07T00:17:37;34.83;;;14.97;;
19782;SDS011;10051;40.294;-3.754;2023-12-07T00:20:03;29.23;;;14.02;;
19782;SDS011;10051;40.294;-3.754;2023-12-07T00:22:29;36.28;;;15.30;;
19782;SDS011;10051;40.294;-3.754;2023-12-07T00:24:55;32.83;;;16.30;;
19782;SDS011;10051;40.294;-3.754;2023-12-07T00:27:20;34.17;;;16.73;;
19782;SDS011;10051;40.294;-3.754;2023-12-07T00:29:46;38.67;;;17.92;;
19782;SDS011;10051;40.294;-3.754;2023-12-07T00:32:11;42.15;;;18.83;;
19782;SDS011;10051;40.294;-3.754;2023-12-07T00:34:37;38.15;;;18.15;;
19782;SDS011;10051;40.294;-3.754;2023-12-07T00:37:03;34.10;;;17.40;;
19782;SDS011;10051;40.294;-3.754;2023-12-07T00:39:28;35.15;;;16.35;;
19782;SDS011;10051;40.294;-3.754;2023-12-07T00:41:54;30.63;;;16.55;;
19782;SDS011;10051;40.294;-3.754;2023-12-07T00:44:19;32.97;;;16.52;;
19782;SDS011;10051;40.294;-3.754;2023-12-07T00:46:45;34.97;;;17.15;;
19782;SDS011;10051;40.294;-3.754;2023-12-07T00:49:11;36.63;;;17.83;;
19782;SDS011;10051;40.294;-3.754;2023-12-07T00:51:37;37.42;;;18.02;;
19782;SDS011;10051;40.294;-3.754;2023-12-07T00:54:03;42.55;;;19.50;;
19782;SDS011;10051;40.294;-3.754;2023-12-07T00:56:28;35.58;;;16.83;;
19782;SDS011;10051;40.294;-3.754;2023-12-07T00:58:54;33.13;;;16.27;;
19782;SDS011;10051;40.294;-3.754;2023-12-07T01:01:19;30.45;;;15.48;;
19782;SDS011;10051;40.294;-3.754;2023-12-07T01:03:45;28.17;;;15.48;;
19782;SDS011;10051;40.294;-3.754;2023-12-07T01:06:10;29.10;;;15.18;;
19782;SDS011;10051;40.294;-3.754;2023-12-07T01:08:36;35.28;;;16.75;;
19782;SDS011;10051;40.294;-3.754;2023-12-07T01:11:03;33.63;;;15.65;;
19782;SDS011;10051;40.294;-3.754;2023-12-07T01:13:29;32.97;;;16.40;;
19782;SDS011;10051;40.294;-3.754;2023-12-07T01:15:55;37.28;;;15.82;;
19782;SDS011;10051;40.294;-3.754;2023-12-07T01:18:21;34.35;;;15.30;;
19782;SDS011;10051;40.294;-3.754;2023-12-07T01:20:46;32.47;;;15.32;;
19782;SDS011;10051;40.294;-3.754;2023-12-07T01:23:13;29.80;;;15.70;;
19782;SDS011;10051;40.294;-3.754;2023-12-07T01:25:39;31.75;;;15.13;;
19782;SDS011;10051;40.294;-3.754;2023-12-07T01:28:05;29.40;;;14.55;;
19782;SDS011;10051;40.294;-3.754;2023-12-07T01:30:30;26.58;;;12.90;;
19782;SDS011;10051;40.294;-3.754;2023-12-07T01:32:56;26.67;;;12.55;;
19782;SDS011;10051;40.294;-3.754;2023-12-07T01:35:21;22.90;;;12.00;;
19782;SDS011;10051;40.294;-3.754;2023-12-07T01:37:47;26.58;;;11.70;;
19782;SDS011;10051;40.294;-3.754;2023-12-07T01:40:12;24.77;;;11.90;;
19782;SDS011;10051;40.294;-3.754;2023-12-07T01:42:40;25.13;;;11.43;;
19782;SDS011;10051;40.294;-3.754;2023-12-07T01:45:06;24.25;;;12.07;;
19782;SDS011;10051;40.294;-3.754;2023-12-07T01:47:32;29.67;;;11.67;;
19782;SDS011;10051;40.294;-3.754;2023-12-07T01:50:00;30.35;;;12.40;;
19782;SDS011;10051;40.294;-3.754;2023-12-07T01:52:26;24.65;;;12.27;;
19782;SDS011;10051;40.294;-3.754;2023-12-07T01:54:54;24.43;;;12.17;;
19782;SDS011;10051;40.294;-3.754;2023-12-07T01:57:20;23.58;;;12.27;;
19782;SDS011;10051;40.294;-3.754;2023-12-07T01:59:47;24.33;;;12.27;;
19782;SDS011;10051;40.294;-3.754;2023-12-07T02:02:14;30.63;;;13.13;;
19782;SDS011;10051;40.294;-3.754;2023-12-07T02:04:39;31.50;;;13.77;;
19782;SDS011;10051;40.294;-3.754;2023-12-07T02:07:05;30.23;;;13.70;;
19782;SDS011;10051;40.294;-3.754;2023-12-07T02:09:31;25.58;;;12.95;;
19782;SDS011;10051;40.294;-3.754;2023-12-07T02:11:57;27.02;;;13.60;;
19782;SDS011;10051;40.294;-3.754;2023-12-07T02:14:23;27.00;;;13.40;;
19782;SDS011;10051;40.294;-3.754;2023-12-07T02:16:50;26.57;;;12.87;;
19782;SDS011;10051;40.294;-3.754;2023-12-07T02:19:33;35.85;;;15.10;;
19782;SDS011;10051;40.294;-3.754;2023-12-07T02:22:14;30.20;;;13.50;;
19782;SDS011;10051;40.294;-3.754;2023-12-07T02:25:02;29.90;;;13.63;;
19782;SDS011;10051;40.294;-3.754;2023-12-07T02:27:41;31.15;;;14.07;;
19782;SDS011;10051;40.294;-3.754;2023-12-07T02:30:08;62.85;;;25.45;;
19782;SDS011;10051;40.294;-3.754;2023-12-07T02:32:38;39.57;;;17.47;;
19782;SDS011;10051;40.294;-3.754;2023-12-07T02:35:09;31.50;;;16.20;;
19782;SDS011;10051;40.294;-3.754;2023-12-07T02:37:50;34.33;;;15.33;;
19782;SDS011;10051;40.294;-3.754;2023-12-07T02:40:17;29.50;;;14.87;;
19782;SDS011;10051;40.294;-3.754;2023-12-07T02:42:48;33.37;;;15.40;;
19782;SDS011;10051;40.294;-3.754;2023-12-07T02:45:15;30.27;;;14.23;;
19782;SDS011;10051;40.294;-3.754;2023-12-07T02:47:41;34.33;;;15.43;;
19782;SDS011;10051;40.294;-3.754;2023-12-07T02:50:08;32.40;;;14.97;;
19782;SDS011;10051;40.294;-3.754;2023-12-07T02:52:34;24.90;;;13.43;;
19782;SDS011;10051;40.294;-3.754;2023-12-07T02:55:00;30.50;;;14.10;;
19782;SDS011;10051;40.294;-3.754;2023-12-07T02:57:27;30.53;;;13.70;;
19782;SDS011;10051;40.294;-3.754;2023-12-07T02:59:53;23.33;;;12.30;;
19782;SDS011;10051;40.294;-3.754;2023-12-07T03:02:18;25.03;;;11.87;;
19782;SDS011;10051;40.294;-3.754;2023-12-07T03:04:44;23.63;;;11.90;;
19782;SDS011;10051;40.294;-3.754;2023-12-07T03:07:10;22.57;;;12.13;;
19782;SDS011;10051;40.294;-3.754;2023-12-07T03:09:35;23.67;;;11.43;;
19782;SDS011;10051;40.294;-3.754;2023-12-07T03:12:01;21.17;;;11.33;;
19782;SDS011;10051;40.294;-3.754;2023-12-07T03:14:26;24.63;;;11.23;;
19782;SDS011;10051;40.294;-3.754;2023-12-07T03:16:52;24.02;;;11.07;;
19782;SDS011;10051;40.294;-3.754;2023-12-07T03:19:17;21.65;;;11.45;;
19782;SDS011;10051;40.294;-3.754;2023-12-07T03:21:43;23.10;;;11.43;;
19782;SDS011;10051;40.294;-3.754;2023-12-07T03:24:09;22.83;;;11.17;;
19782;SDS011;10051;40.294;-3.754;2023-12-07T03:26:35;25.37;;;11.27;;
19782;SDS011;10051;40.294;-3.754;2023-12-07T03:29:00;22.70;;;11.13;;
19782;SDS011;10051;40.294;-3.754;2023-12-07T03:31:26;23.07;;;11.30;;
19782;SDS011;10051;40.294;-3.754;2023-12-07T03:33:53;20.40;;;11.07;;
19782;SDS011;10051;40.294;-3.754;2023-12-07T03:36:18;22.43;;;11.13;;
19782;SDS011;10051;40.294;-3.754;2023-12-07T03:38:44;23.75;;;12.07;;
19782;SDS011;10051;40.294;-3.754;2023-12-07T03:41:10;20.57;;;10.63;;
19782;SDS011;10051;40.294;-3.754;2023-12-07T03:43:35;24.08;;;11.60;;
19782;SDS011;10051;40.294;-3.754;2023-12-07T03:46:04;22.73;;;10.80;;
19782;SDS011;10051;40.294;-3.754;2023-12-07T03:48:30;21.07;;;11.00;;
19782;SDS011;10051;40.294;-3.754;2023-12-07T03:50:56;24.17;;;9.67;;
19782;SDS011;10051;40.294;-3.754;2023-12-07T03:53:22;20.23;;;10.07;;
19782;SDS011;10051;40.294;-3.754;2023-12-07T03:55:48;19.13;;;10.23;;
19782;SDS011;10051;40.294;-3.754;2023-12-07T03:58:13;20.03;;;10.07;;
19782;SDS011;10051;40.294;-3.754;2023-12-07T04:00:39;19.27;;;10.50;;
19782;SDS011;10051;40.294;-3.754;2023-12-07T04:03:05;18.80;;;10.17;;
19782;SDS011;10051;40.294;-3.754;2023-12-07T04:05:30;22.00;;;10.43;;
19782;SDS011;10051;40.294;-3.754;2023-12-07T04:07:57;21.33;;;10.87;;
19782;SDS011;10051;40.294;-3.754;2023-12-07T04:10:22;21.43;;;11.13;;
19782;SDS011;10051;40.294;-3.754;2023-12-07T04:12:48;23.73;;;10.70;;
19782;SDS011;10051;40.294;-3.754;2023-12-07T04:15:14;21.42;;;10.63;;
19782;SDS011;10051;40.294;-3.754;2023-12-07T04:17:39;17.43;;;9.87;;
19782;SDS011;10051;40.294;-3.754;2023-12-07T04:20:05;24.47;;;10.67;;
19782;SDS011;10051;40.294;-3.754;2023-12-07T04:22:32;24.40;;;10.47;;
19782;SDS011;10051;40.294;-3.754;2023-12-07T04:24:58;20.60;;;10.52;;
19782;SDS011;10051;40.294;-3.754;2023-12-07T04:27:23;23.73;;;10.45;;
19782;SDS011;10051;40.294;-3.754;2023-12-07T04:29:49;25.67;;;10.70;;
19782;SDS011;10051;40.294;-3.754;2023-12-07T04:32:14;20.03;;;10.33;;
19782;SDS011;10051;40.294;-3.754;2023-12-07T04:34:40;25.63;;;11.83;;
19782;SDS011;10051;40.294;-3.754;2023-12-07T04:37:05;22.83;;;11.57;;
19782;SDS011;10051;40.294;-3.754;2023-12-07T04:39:31;21.60;;;11.63;;
19782;SDS011;10051;40.294;-3.754;2023-12-07T04:41:57;23.20;;;11.27;;
19782;SDS011;10051;40.294;-3.754;2023-12-07T04:44:23;23.65;;;12.25;;
19782;SDS011;10051;40.294;-3.754;2023-12-07T04:46:50;26.27;;;12.00;;
19782;SDS011;10051;40.294;-3.754;2023-12-07T04:49:16;23.70;;;11.87;;
19782;SDS011;10051;40.294;-3.754;2023-12-07T04:51:42;22.00;;;11.63;;
19782;SDS011;10051;40.294;-3.754;2023-12-07T04:54:11;25.10;;;11.50;;
19782;SDS011;10051;40.294;-3.754;2023-12-07T04:56:40;26.33;;;12.23;;
19782;SDS011;10051;40.294;-3.754;2023-12-07T04:59:07;24.63;;;12.00;;
19782;SDS011;10051;40.294;-3.754;2023-12-07T05:01:34;29.63;;;13.07;;
19782;SDS011;10051;40.294;-3.754;2023-12-07T05:04:01;27.47;;;12.67;;
19782;SDS011;10051;40.294;-3.754;2023-12-07T05:06:29;25.03;;;12.07;;
19782;SDS011;10051;40.294;-3.754;2023-12-07T05:08:55;26.45;;;12.23;;
19782;SDS011;10051;40.294;-3.754;2023-12-07T05:11:20;24.87;;;12.57;;
19782;SDS011;10051;40.294;-3.754;2023-12-07T05:13:46;28.90;;;13.43;;
19782;SDS011;10051;40.294;-3.754;2023-12-07T05:16:13;25.90;;;13.40;;
19782;SDS011;10051;40.294;-3.754;2023-12-07T05:18:38;24.73;;;12.80;;
19782;SDS011;10051;40.294;-3.754;2023-12-07T05:21:05;27.20;;;12.35;;
19782;SDS011;10051;40.294;-3.754;2023-12-07T05:23:30;28.98;;;13.00;;
19782;SDS011;10051;40.294;-3.754;2023-12-07T05:25:56;26.58;;;12.63;;
19782;SDS011;10051;40.294;-3.754;2023-12-07T05:28:22;26.52;;;13.07;;
19782;SDS011;10051;40.294;-3.754;2023-12-07T05:30:47;30.02;;;13.50;;
19782;SDS011;10051;40.294;-3.754;2023-12-07T05:33:13;22.98;;;12.90;;
19782;SDS011;10051;40.294;-3.754;2023-12-07T05:35:39;24.58;;;13.00;;
19782;SDS011;10051;40.294;-3.754;2023-12-07T05:38:04;28.50;;;13.82;;
19782;SDS011;10051;40.294;-3.754;2023-12-07T05:40:30;26.70;;;14.03;;
19782;SDS011;10051;40.294;-3.754;2023-12-07T05:42:56;28.27;;;14.40;;
19782;SDS011;10051;40.294;-3.754;2023-12-07T05:45:21;27.63;;;14.20;;
19782;SDS011;10051;40.294;-3.754;2023-12-07T05:47:47;29.23;;;15.17;;
19782;SDS011;10051;40.294;-3.754;2023-12-07T05:50:12;25.90;;;14.60;;
19782;SDS011;10051;40.294;-3.754;2023-12-07T05:52:38;30.87;;;15.03;;
19782;SDS011;10051;40.294;-3.754;2023-12-07T05:55:04;28.47;;;14.13;;
19782;SDS011;10051;40.294;-3.754;2023-12-07T05:57:30;29.03;;;14.17;;
19782;SDS011;10051;40.294;-3.754;2023-12-07T05:59:56;29.73;;;14.83;;
19782;SDS011;10051;40.294;-3.754;2023-12-07T06:02:21;29.33;;;14.50;;
19782;SDS011;10051;40.294;-3.754;2023-12-07T06:04:47;27.88;;;14.90;;
19782;SDS011;10051;40.294;-3.754;2023-12-07T06:07:12;30.17;;;15.40;;
19782;SDS011;10051;40.294;-3.754;2023-12-07T06:09:38;29.73;;;14.57;;
19782;SDS011;10051;40.294;-3.754;2023-12-07T06:12:04;25.60;;;13.83;;
19782;SDS011;10051;40.294;-3.754;2023-12-07T06:14:29;27.47;;;14.10;;
19782;SDS011;10051;40.294;-3.754;2023-12-07T06:16:55;28.80;;;14.33;;
19782;SDS011;10051;40.294;-3.754;2023-12-07T06:19:20;31.00;;;14.87;;
19782;SDS011;10051;40.294;-3.754;2023-12-07T06:21:46;27.93;;;14.80;;
19782;SDS011;10051;40.294;-3.754;2023-12-07T06:24:12;26.73;;;13.40;;
19782;SDS011;10051;40.294;-3.754;2023-12-07T06:26:39;29.43;;;13.60;;
19782;SDS011;10051;40.294;-3.754;2023-12-07T06:29:05;29.43;;;14.40;;
19782;SDS011;10051;40.294;-3.754;2023-12-07T06:31:32;27.60;;;13.90;;
19782;SDS011;10051;40.294;-3.754;2023-12-07T06:33:58;28.97;;;13.23;;
19782;SDS011;10051;40.294;-3.754;2023-12-07T06:36:25;27.57;;;13.70;;
19782;SDS011;10051;40.294;-3.754;2023-12-07T06:38:52;24.27;;;13.13;;
19782;SDS011;10051;40.294;-3.754;2023-12-07T06:41:19;22.47;;;12.63;;
19782;SDS011;10051;40.294;-3.754;2023-12-07T06:43:46;25.87;;;13.00;;
19782;SDS011;10051;40.294;-3.754;2023-12-07T06:46:12;24.97;;;12.90;;
19782;SDS011;10051;40.294;-3.754;2023-12-07T06:48:38;21.97;;;13.07;;
19782;SDS011;10051;40.294;-3.754;2023-12-07T06:51:05;25.33;;;12.73;;
19782;SDS011;10051;40.294;-3.754;2023-12-07T06:53:30;21.37;;;12.53;;
19782;SDS011;10051;40.294;-3.754;2023-12-07T06:55:59;23.10;;;12.50;;
19782;SDS011;10051;40.294;-3.754;2023-12-07T06:58:24;27.13;;;13.03;;
19782;SDS011;10051;40.294;-3.754;2023-12-07T07:00:50;24.33;;;13.03;;
19782;SDS011;10051;40.294;-3.754;2023-12-07T07:03:15;22.42;;;12.20;;
19782;SDS011;10051;40.294;-3.754;2023-12-07T07:05:42;20.47;;;12.57;;
19782;SDS011;10051;40.294;-3.754;2023-12-07T07:08:07;26.67;;;13.03;;
19782;SDS011;10051;40.294;-3.754;2023-12-07T07:10:33;24.20;;;13.50;;
19782;SDS011;10051;40.294;-3.754;2023-12-07T07:13:02;30.77;;;13.40;;
19782;SDS011;10051;40.294;-3.754;2023-12-07T07:15:30;23.85;;;12.02;;
19782;SDS011;10051;40.294;-3.754;2023-12-07T07:17:56;23.10;;;12.17;;
19782;SDS011;10051;40.294;-3.754;2023-12-07T07:20:21;24.23;;;12.30;;
19782;SDS011;10051;40.294;-3.754;2023-12-07T07:22:47;24.37;;;11.83;;
19782;SDS011;10051;40.294;-3.754;2023-12-07T07:25:13;21.85;;;11.95;;
19782;SDS011;10051;40.294;-3.754;2023-12-07T07:27:41;22.87;;;12.00;;
19782;SDS011;10051;40.294;-3.754;2023-12-07T07:30:07;23.57;;;11.73;;
19782;SDS011;10051;40.294;-3.754;2023-12-07T07:32:33;23.90;;;12.07;;
19782;SDS011;10051;40.294;-3.754;2023-12-07T07:34:59;23.93;;;11.83;;
19782;SDS011;10051;40.294;-3.754;2023-12-07T07:37:25;27.57;;;12.17;;
19782;SDS011;10051;40.294;-3.754;2023-12-07T07:39:51;27.03;;;12.53;;
19782;SDS011;10051;40.294;-3.754;2023-12-07T07:42:17;22.97;;;11.50;;
19782;SDS011;10051;40.294;-3.754;2023-12-07T07:44:42;21.97;;;11.50;;
19782;SDS011;10051;40.294;-3.754;2023-12-07T07:47:08;17.60;;;10.63;;
19782;SDS011;10051;40.294;-3.754;2023-12-07T07:49:33;27.27;;;12.20;;
19782;SDS011;10051;40.294;-3.754;2023-12-07T07:51:59;22.27;;;11.43;;
19782;SDS011;10051;40.294;-3.754;2023-12-07T07:54:24;22.20;;;11.47;;
19782;SDS011;10051;40.294;-3.754;2023-12-07T07:56:51;21.43;;;11.90;;
19782;SDS011;10051;40.294;-3.754;2023-12-07T07:59:17;26.77;;;12.50;;
19782;SDS011;10051;40.294;-3.754;2023-12-07T08:01:42;24.93;;;12.83;;
19782;SDS011;10051;40.294;-3.754;2023-12-07T08:04:09;28.03;;;12.93;;
19782;SDS011;10051;40.294;-3.754;2023-12-07T08:06:35;24.90;;;12.67;;
19782;SDS011;10051;40.294;-3.754;2023-12-07T08:09:00;21.90;;;12.30;;
19782;SDS011;10051;40.294;-3.754;2023-12-07T08:11:26;24.40;;;12.47;;
19782;SDS011;10051;40.294;-3.754;2023-12-07T08:13:51;24.10;;;12.33;;
19782;SDS011;10051;40.294;-3.754;2023-12-07T08:16:17;23.03;;;12.27;;
19782;SDS011;10051;40.294;-3.754;2023-12-07T08:18:44;26.50;;;12.70;;
19782;SDS011;10051;40.294;-3.754;2023-12-07T08:21:17;25.20;;;12.17;;
19782;SDS011;10051;40.294;-3.754;2023-12-07T08:23:46;29.47;;;12.47;;
19782;SDS011;10051;40.294;-3.754;2023-12-07T08:26:11;28.40;;;12.77;;
19782;SDS011;10051;40.294;-3.754;2023-12-07T08:28:39;27.07;;;13.33;;
19782;SDS011;10051;40.294;-3.754;2023-12-07T08:31:05;25.70;;;13.63;;
19782;SDS011;10051;40.294;-3.754;2023-12-07T08:33:31;25.23;;;12.73;;
19782;SDS011;10051;40.294;-3.754;2023-12-07T08:35:59;25.83;;;13.40;;
19782;SDS011;10051;40.294;-3.754;2023-12-07T08:38:28;26.43;;;13.20;;
19782;SDS011;10051;40.294;-3.754;2023-12-07T08:40:53;24.87;;;13.27;;
19782;SDS011;10051;40.294;-3.754;2023-12-07T08:43:22;30.23;;;13.43;;
19782;SDS011;10051;40.294;-3.754;2023-12-07T08:45:52;27.47;;;13.13;;
19782;SDS011;10051;40.294;-3.754;2023-12-07T08:48:21;24.48;;;13.10;;
19782;SDS011;10051;40.294;-3.754;2023-12-07T08:50:46;24.10;;;12.95;;
19782;SDS011;10051;40.294;-3.754;2023-12-07T08:53:12;24.60;;;13.13;;
19782;SDS011;10051;40.294;-3.754;2023-12-07T08:55:37;27.07;;;13.07;;
19782;SDS011;10051;40.294;-3.754;2023-12-07T08:58:03;26.10;;;13.40;;
19782;SDS011;10051;40.294;-3.754;2023-12-07T09:00:32;23.55;;;12.18;;
19782;SDS011;10051;40.294;-3.754;2023-12-07T09:02:58;28.58;;;12.63;;
19782;SDS011;10051;40.294;-3.754;2023-12-07T09:05:25;29.05;;;13.63;;
19782;SDS011;10051;40.294;-3.754;2023-12-07T09:07:51;24.90;;;13.27;;
19782;SDS011;10051;40.294;-3.754;2023-12-07T09:10:17;25.15;;;13.27;;
19782;SDS011;10051;40.294;-3.754;2023-12-07T09:12:44;26.00;;;13.43;;
19782;SDS011;10051;40.294;-3.754;2023-12-07T09:15:09;26.85;;;15.50;;
19782;SDS011;10051;40.294;-3.754;2023-12-07T09:17:35;31.10;;;16.37;;
19782;SDS011;10051;40.294;-3.754;2023-12-07T09:20:04;28.17;;;14.53;;
19782;SDS011;10051;40.294;-3.754;2023-12-07T09:22:37;26.13;;;13.95;;
19782;SDS011;10051;40.294;-3.754;2023-12-07T09:25:07;27.88;;;14.00;;
19782;SDS011;10051;40.294;-3.754;2023-12-07T09:27:34;26.90;;;13.45;;
19782;SDS011;10051;40.294;-3.754;2023-12-07T09:30:02;24.92;;;13.15;;
19782;SDS011;10051;40.294;-3.754;2023-12-07T09:32:31;26.58;;;13.30;;
19782;SDS011;10051;40.294;-3.754;2023-12-07T09:34:57;24.80;;;14.68;;
19782;SDS011;10051;40.294;-3.754;2023-12-07T09:37:23;24.23;;;13.35;;
19782;SDS011;10051;40.294;-3.754;2023-12-07T09:39:48;24.37;;;13.30;;
19782;SDS011;10051;40.294;-3.754;2023-12-07T09:42:14;23.10;;;13.43;;
19782;SDS011;10051;40.294;-3.754;2023-12-07T09:44:40;24.90;;;13.95;;
19782;SDS011;10051;40.294;-3.754;2023-12-07T09:47:05;30.35;;;15.30;;
19782;SDS011;10051;40.294;-3.754;2023-12-07T09:49:31;29.88;;;14.93;;
19782;SDS011;10051;40.294;-3.754;2023-12-07T09:51:58;30.23;;;14.43;;
19782;SDS011;10051;40.294;-3.754;2023-12-07T09:54:23;23.08;;;13.25;;
19782;SDS011;10051;40.294;-3.754;2023-12-07T09:56:51;21.95;;;13.07;;
19782;SDS011;10051;40.294;-3.754;2023-12-07T09:59:19;25.70;;;13.50;;
19782;SDS011;10051;40.294;-3.754;2023-12-07T10:01:45;24.77;;;13.85;;
19782;SDS011;10051;40.294;-3.754;2023-12-07T10:04:18;26.42;;;13.98;;
19782;SDS011;10051;40.294;-3.754;2023-12-07T10:06:45;25.15;;;13.20;;
19782;SDS011;10051;40.294;-3.754;2023-12-07T10:09:11;27.45;;;14.00;;
19782;SDS011;10051;40.294;-3.754;2023-12-07T10:11:37;22.65;;;12.93;;
19782;SDS011;10051;40.294;-3.754;2023-12-07T10:14:04;27.58;;;13.25;;
19782;SDS011;10051;40.294;-3.754;2023-12-07T10:16:32;24.27;;;13.25;;
19782;SDS011;10051;40.294;-3.754;2023-12-07T10:19:16;27.98;;;13.65;;
19782;SDS011;10051;40.294;-3.754;2023-12-07T10:21:53;25.85;;;14.05;;
19782;SDS011;10051;40.294;-3.754;2023-12-07T10:24:20;25.15;;;13.35;;
19782;SDS011;10051;40.294;-3.754;2023-12-07T10:26:47;26.77;;;13.75;;
19782;SDS011;10051;40.294;-3.754;2023-12-07T10:29:14;22.98;;;12.98;;
19782;SDS011;10051;40.294;-3.754;2023-12-07T10:31:40;25.33;;;13.52;;
19782;SDS011;10051;40.294;-3.754;2023-12-07T10:34:05;28.63;;;13.20;;
19782;SDS011;10051;40.294;-3.754;2023-12-07T10:36:31;24.90;;;13.07;;
19782;SDS011;10051;40.294;-3.754;2023-12-07T10:38:57;28.55;;;13.27;;
19782;SDS011;10051;40.294;-3.754;2023-12-07T10:41:24;28.30;;;13.60;;
19782;SDS011;10051;40.294;-3.754;2023-12-07T10:44:00;28.48;;;14.32;;
19782;SDS011;10051;40.294;-3.754;2023-12-07T10:46:26;24.48;;;13.35;;
19782;SDS011;10051;40.294;-3.754;2023-12-07T10:48:59;24.17;;;13.57;;
19782;SDS011;10051;40.294;-3.754;2023-12-07T10:53:55;26.77;;;13.68;;
19782;SDS011;10051;40.294;-3.754;2023-12-07T10:56:35;28.05;;;14.23;;
19782;SDS011;10051;40.294;-3.754;2023-12-07T10:59:11;28.55;;;14.27;;
19782;SDS011;10051;40.294;-3.754;2023-12-07T11:01:41;28.63;;;14.77;;
19782;SDS011;10051;40.294;-3.754;2023-12-07T11:04:11;27.38;;;15.07;;
19782;SDS011;10051;40.294;-3.754;2023-12-07T11:06:41;29.67;;;15.75;;
19782;SDS011;10051;40.294;-3.754;2023-12-07T11:09:13;26.50;;;14.05;;
19782;SDS011;10051;40.294;-3.754;2023-12-07T11:11:48;23.60;;;13.75;;
19782;SDS011;10051;40.294;-3.754;2023-12-07T11:14:20;24.40;;;13.75;;
19782;SDS011;10051;40.294;-3.754;2023-12-07T11:16:49;24.10;;;13.57;;
19782;SDS011;10051;40.294;-3.754;2023-12-07T11:22:05;28.35;;;14.52;;
19782;SDS011;10051;40.294;-3.754;2023-12-07T11:24:32;29.20;;;15.35;;
19782;SDS011;10051;40.294;-3.754;2023-12-07T11:26:58;34.28;;;15.23;;
19782;SDS011;10051;40.294;-3.754;2023-12-07T11:29:24;29.45;;;15.90;;
19782;SDS011;10051;40.294;-3.754;2023-12-07T11:31:51;31.23;;;15.38;;
19782;SDS011;10051;40.294;-3.754;2023-12-07T11:34:39;27.02;;;14.82;;
19782;SDS011;10051;40.294;-3.754;2023-12-07T11:37:06;25.00;;;14.93;;
19782;SDS011;10051;40.294;-3.754;2023-12-07T11:39:39;32.80;;;18.90;;
19782;SDS011;10051;40.294;-3.754;2023-12-07T11:42:15;35.40;;;19.05;;
19782;SDS011;10051;40.294;-3.754;2023-12-07T11:44:43;30.17;;;17.27;;
19782;SDS011;10051;40.294;-3.754;2023-12-07T11:47:15;33.83;;;18.27;;
19782;SDS011;10051;40.294;-3.754;2023-12-07T11:49:42;31.02;;;17.15;;
19782;SDS011;10051;40.294;-3.754;2023-12-07T11:52:20;28.25;;;15.75;;
19782;SDS011;10051;40.294;-3.754;2023-12-07T11:54:47;35.90;;;16.75;;
19782;SDS011;10051;40.294;-3.754;2023-12-07T11:57:14;28.88;;;16.27;;
19782;SDS011;10051;40.294;-3.754;2023-12-07T11:59:41;30.42;;;15.73;;
19782;SDS011;10051;40.294;-3.754;2023-12-07T12:02:10;36.00;;;18.45;;
19782;SDS011;10051;40.294;-3.754;2023-12-07T12:04:36;37.15;;;19.40;;
19782;SDS011;10051;40.294;-3.754;2023-12-07T12:07:03;39.22;;;17.33;;
19782;SDS011;10051;40.294;-3.754;2023-12-07T12:09:29;28.83;;;15.75;;
19782;SDS011;10051;40.294;-3.754;2023-12-07T12:11:54;30.80;;;15.48;;
19782;SDS011;10051;40.294;-3.754;2023-12-07T12:14:25;30.75;;;16.20;;
19782;SDS011;10051;40.294;-3.754;2023-12-07T12:16:51;30.23;;;16.77;;
19782;SDS011;10051;40.294;-3.754;2023-12-07T12:19:17;35.42;;;18.88;;
19782;SDS011;10051;40.294;-3.754;2023-12-07T12:21:43;29.20;;;16.75;;
19782;SDS011;10051;40.294;-3.754;2023-12-07T12:24:09;32.90;;;17.55;;
19782;SDS011;10051;40.294;-3.754;2023-12-07T12:26:40;36.00;;;17.95;;
19782;SDS011;10051;40.294;-3.754;2023-12-07T12:29:07;32.58;;;17.40;;
19782;SDS011;10051;40.294;-3.754;2023-12-07T12:31:37;39.17;;;20.20;;
19782;SDS011;10051;40.294;-3.754;2023-12-07T12:34:05;40.58;;;18.65;;
19782;SDS011;10051;40.294;-3.754;2023-12-07T12:36:33;33.70;;;17.60;;
19782;SDS011;10051;40.294;-3.754;2023-12-07T12:39:00;33.05;;;17.15;;
19782;SDS011;10051;40.294;-3.754;2023-12-07T12:41:27;55.60;;;25.55;;
19782;SDS011;10051;40.294;-3.754;2023-12-07T12:43:56;57.00;;;24.80;;
19782;SDS011;10051;40.294;-3.754;2023-12-07T12:46:21;53.70;;;25.02;;
19782;SDS011;10051;40.294;-3.754;2023-12-07T12:48:57;55.00;;;23.63;;
19782;SDS011;10051;40.294;-3.754;2023-12-07T12:51:24;36.00;;;19.30;;
19782;SDS011;10051;40.294;-3.754;2023-12-07T12:53:51;60.13;;;32.08;;
19782;SDS011;10051;40.294;-3.754;2023-12-07T12:56:18;48.30;;;26.23;;
19782;SDS011;10051;40.294;-3.754;2023-12-07T12:58:46;33.15;;;18.85;;
19782;SDS011;10051;40.294;-3.754;2023-12-07T13:01:15;33.33;;;16.65;;
19782;SDS011;10051;40.294;-3.754;2023-12-07T13:03:43;32.60;;;17.67;;
19782;SDS011;10051;40.294;-3.754;2023-12-07T13:06:11;33.83;;;17.80;;
19782;SDS011;10051;40.294;-3.754;2023-12-07T13:08:37;28.27;;;15.77;;
19782;SDS011;10051;40.294;-3.754;2023-12-07T13:11:03;30.27;;;16.48;;
19782;SDS011;10051;40.294;-3.754;2023-12-07T13:13:28;27.55;;;15.57;;
19782;SDS011;10051;40.294;-3.754;2023-12-07T13:15:55;28.65;;;16.17;;
19782;SDS011;10051;40.294;-3.754;2023-12-07T13:18:20;33.75;;;15.88;;
19782;SDS011;10051;40.294;-3.754;2023-12-07T13:20:46;30.42;;;15.40;;
19782;SDS011;10051;40.294;-3.754;2023-12-07T13:23:11;28.65;;;15.88;;
19782;SDS011;10051;40.294;-3.754;2023-12-07T13:25:43;30.38;;;16.30;;
19782;SDS011;10051;40.294;-3.754;2023-12-07T13:28:09;28.98;;;16.67;;
19782;SDS011;10051;40.294;-3.754;2023-12-07T13:30:35;27.60;;;15.77;;
19782;SDS011;10051;40.294;-3.754;2023-12-07T13:33:01;30.77;;;16.75;;
19782;SDS011;10051;40.294;-3.754;2023-12-07T13:35:28;34.65;;;17.85;;
19782;SDS011;10051;40.294;-3.754;2023-12-07T13:37:54;32.78;;;17.58;;
19782;SDS011;10051;40.294;-3.754;2023-12-07T13:40:20;34.63;;;17.90;;
19782;SDS011;10051;40.294;-3.754;2023-12-07T13:42:46;36.35;;;18.63;;
19782;SDS011;10051;40.294;-3.754;2023-12-07T13:45:11;32.75;;;18.35;;
19782;SDS011;10051;40.294;-3.754;2023-12-07T13:47:37;33.78;;;18.58;;
19782;SDS011;10051;40.294;-3.754;2023-12-07T13:50:03;32.42;;;18.88;;
19782;SDS011;10051;40.294;-3.754;2023-12-07T13:52:30;34.42;;;17.90;;
19782;SDS011;10051;40.294;-3.754;2023-12-07T13:54:57;37.15;;;17.23;;
19782;SDS011;10051;40.294;-3.754;2023-12-07T13:57:23;36.60;;;19.25;;
19782;SDS011;10051;40.294;-3.754;2023-12-07T13:59:52;34.97;;;19.17;;
19782;SDS011;10051;40.294;-3.754;2023-12-07T14:02:19;32.80;;;20.17;;
19782;SDS011;10051;40.294;-3.754;2023-12-07T14:04:46;32.55;;;19.10;;
19782;SDS011;10051;40.294;-3.754;2023-12-07T14:07:16;38.00;;;20.13;;
19782;SDS011;10051;40.294;-3.754;2023-12-07T14:09:43;38.65;;;22.15;;
19782;SDS011;10051;40.294;-3.754;2023-12-07T14:12:11;38.88;;;21.55;;